Time,TemperatureF,DewpointF,PressureIn,WindDirection,WindDirectionDegrees,WindSpeedMPH,WindSpeedGustMPH,Humidity,HourlyPrecipIn,Conditions,Clouds,dailyrainin,SoftwareType,DateUTC
2013-01-24 00:07:00,62.8,60.1,30.11,North,0,2.7,-999.0,91,-99.99,,,0.00,Acu-Link.com,2013-01-24 06:07:00,
2013-01-24 00:22:00,62.8,60.1,30.11,NE,45,2.2,-999.0,91,-99.99,,,0.00,Acu-Link.com,2013-01-24 06:22:00,
2013-01-24 00:37:00,62.8,59.8,30.11,West,270,4.3,-999.0,90,-99.99,,,0.00,Acu-Link.com,2013-01-24 06:37:00,
2013-01-24 00:52:00,62.2,59.6,30.11,NNW,337,2.7,-999.0,91,-99.99,,,0.00,Acu-Link.com,2013-01-24 06:52:00,
2013-01-24 01:07:00,61.5,59.5,30.11,SSE,157,2.2,-999.0,93,-99.99,,,0.00,Acu-Link.com,2013-01-24 07:07:00,
2013-01-24 01:23:00,61.0,59.2,30.11,SSE,157,4.3,-999.0,94,-99.99,,,0.00,Acu-Link.com,2013-01-24 07:23:00,
2013-01-24 01:38:00,60.6,59.2,30.11,SSE,157,2.2,-999.0,95,-99.99,,,0.00,Acu-Link.com,2013-01-24 07:38:00,
2013-01-24 01:53:00,60.3,59.1,30.11,ENE,67,2.2,-999.0,96,-99.99,,,0.00,Acu-Link.com,2013-01-24 07:53:00,
2013-01-24 02:08:00,59.7,58.9,30.11,East,90,2.2,-999.0,97,-99.99,,,0.00,Acu-Link.com,2013-01-24 08:08:00,
2013-01-24 02:23:00,58.8,58.3,30.12,WNW,292,0.0,-999.0,98,-99.99,,,0.00,Acu-Link.com,2013-01-24 08:23:00,
2013-01-24 02:39:00,58.3,57.7,30.11,NE,45,1.1,-999.0,98,-99.99,,,0.00,Acu-Link.com,2013-01-24 08:39:00,
2013-01-24 02:54:00,57.9,57.4,30.12,SE,135,2.2,-999.0,98,-99.99,,,0.00,Acu-Link.com,2013-01-24 08:54:00,
2013-01-24 03:16:00,57.6,57.0,30.12,ENE,67,1.6,-999.0,98,-99.99,,,0.00,Acu-Link.com,2013-01-24 09:16:00,
2013-01-24 03:31:00,57.6,57.0,30.12,ESE,112,0.0,-999.0,98,-99.99,,,0.00,Acu-Link.com,2013-01-24 09:31:00,
2013-01-24 03:46:00,57.4,56.8,30.12,SSE,157,0.0,-999.0,98,-99.99,,,0.00,Acu-Link.com,2013-01-24 09:46:00,
2013-01-24 04:01:00,57.4,56.8,30.12,NNW,337,2.2,-999.0,98,-99.99,,,0.00,Acu-Link.com,2013-01-24 10:01:00,
2013-01-24 04:16:00,57.2,56.6,30.12,East,90,2.2,-999.0,98,-99.99,,,0.00,Acu-Link.com,2013-01-24 10:16:00,
2013-01-24 04:32:00,56.5,55.9,30.11,North,0,1.6,-999.0,98,-99.99,,,0.00,Acu-Link.com,2013-01-24 10:32:00,
2013-01-24 04:47:00,55.9,53.9,30.12,ENE,67,0.0,-999.0,93,-99.99,,,0.00,Acu-Link.com,2013-01-24 10:47:00,
2013-01-24 05:02:00,55.4,51.6,30.12,West,270,0.0,-999.0,87,-99.99,,,0.00,Acu-Link.com,2013-01-24 11:02:00,
2013-01-24 05:17:00,55.0,49.6,30.12,South,180,0.0,-999.0,82,-99.99,,,0.00,Acu-Link.com,2013-01-24 11:17:00,
2013-01-24 05:32:00,54.9,46.7,30.12,NE,45,1.1,-999.0,74,-99.99,,,0.00,Acu-Link.com,2013-01-24 11:32:00,
2013-01-24 05:48:00,54.5,42.2,30.12,SE,135,0.0,-999.0,63,-99.99,,,0.00,Acu-Link.com,2013-01-24 11:48:00,
2013-01-24 06:03:00,54.0,36.2,30.12,SE,135,0.0,-999.0,51,-99.99,,,0.00,Acu-Link.com,2013-01-24 12:03:00,
2013-01-24 06:18:00,53.8,30.0,30.12,East,90,0.0,-999.0,40,-99.99,,,0.00,Acu-Link.com,2013-01-24 12:18:00,
2013-01-24 06:33:00,53.8,18.8,30.12,ENE,67,0.0,-999.0,25,-99.99,,,0.00,Acu-Link.com,2013-01-24 12:33:00,
2013-01-24 06:48:00,53.6,20.4,30.12,East,90,0.0,-999.0,27,-99.99,,,0.00,Acu-Link.com,2013-01-24 12:48:00,
2013-01-24 07:04:00,53.6,17.7,30.13,East,90,1.6,-999.0,24,-99.99,,,0.00,Acu-Link.com,2013-01-24 13:04:00,
2013-01-24 07:19:00,54.1,16.2,30.13,East,90,1.1,-999.0,22,-99.99,,,0.00,Acu-Link.com,2013-01-24 13:19:00,
2013-01-24 07:34:00,54.1,18.2,30.13,ENE,67,0.0,-999.0,24,-99.99,,,0.00,Acu-Link.com,2013-01-24 13:34:00,
2013-01-24 07:49:00,54.7,25.4,30.13,SE,135,0.0,-999.0,32,-99.99,,,0.00,Acu-Link.com,2013-01-24 13:49:00,
2013-01-24 08:04:00,56.1,28.1,30.14,NNE,22,0.0,-999.0,34,-99.99,,,0.00,Acu-Link.com,2013-01-24 14:04:00,
2013-01-24 08:20:00,56.7,55.0,30.14,West,270,1.6,-999.0,94,-99.99,,,0.00,Acu-Link.com,2013-01-24 14:20:00,
2013-01-24 08:35:00,57.6,57.0,30.14,SSE,157,1.6,-999.0,98,-99.99,,,0.00,Acu-Link.com,2013-01-24 14:35:00,
2013-01-24 08:50:00,59.2,58.3,30.14,East,90,2.7,-999.0,97,-99.99,,,0.00,Acu-Link.com,2013-01-24 14:50:00,
2013-01-24 09:05:00,59.7,59.2,30.14,ESE,112,2.2,-999.0,98,-99.99,,,0.00,Acu-Link.com,2013-01-24 15:05:00,
2013-01-24 09:20:00,61.5,60.1,30.14,NW,315,4.3,-999.0,95,-99.99,,,0.00,Acu-Link.com,2013-01-24 15:20:00,
2013-01-24 12:22:00,72.1,60.1,30.10,ENE,67,2.7,-999.0,66,-99.99,,,0.00,Acu-Link.com,2013-01-24 18:22:00,
2013-01-24 12:37:00,74.3,60.9,30.10,NNE,22,3.1,-999.0,63,-99.99,,,0.00,Acu-Link.com,2013-01-24 18:37:00,
2013-01-24 12:52:00,74.8,60.5,30.09,NW,315,3.8,-999.0,61,-99.99,,,0.00,Acu-Link.com,2013-01-24 18:52:00,
2013-01-24 14:08:00,77.0,61.1,30.05,East,90,2.7,-999.0,58,-99.99,,,0.00,Acu-Link.com,2013-01-24 20:08:00,
2013-01-24 14:23:00,76.8,60.9,30.05,North,0,3.1,-999.0,58,-99.99,,,0.00,Acu-Link.com,2013-01-24 20:23:00,
2013-01-24 14:39:00,78.4,60.9,30.04,SSE,157,1.6,-999.0,55,-99.99,,,0.00,Acu-Link.com,2013-01-24 20:39:00,
2013-01-24 14:54:00,78.8,61.2,30.03,East,90,3.1,-999.0,55,-99.99,,,0.00,Acu-Link.com,2013-01-24 20:54:00,
2013-01-24 15:32:00,77.4,60.4,30.02,SE,135,4.3,-999.0,56,-99.99,,,0.00,Acu-Link.com,2013-01-24 21:32:00,
2013-01-24 17:35:00,78.1,60.6,30.02,North,0,2.2,-999.0,55,-99.99,,,0.00,Acu-Link.com,2013-01-24 23:35:00,
2013-01-24 17:50:00,78.1,60.6,30.02,North,0,2.2,-999.0,55,-99.99,,,0.00,Acu-Link.com,2013-01-24 23:50:00,
2013-01-24 18:05:00,78.1,60.6,30.02,North,0,2.2,-999.0,55,-99.99,,,0.00,Acu-Link.com,2013-01-25 00:05:00,
2013-01-24 18:20:00,78.1,60.6,30.02,North,0,2.2,-999.0,55,-99.99,,,0.00,Acu-Link.com,2013-01-25 00:20:00,
2013-01-24 20:12:00,64.2,51.4,30.03,North,0,1.6,-999.0,63,-99.99,,,0.00,Acu-Link.com,2013-01-25 02:12:00,
2013-01-24 20:27:00,62.8,51.2,30.03,East,90,0.0,-999.0,66,-99.99,,,0.00,Acu-Link.com,2013-01-25 02:27:00,
2013-01-24 20:54:00,61.5,51.3,30.03,West,270,1.1,-999.0,69,-99.99,,,0.00,Acu-Link.com,2013-01-25 02:54:00,
2013-01-24 21:10:00,60.4,50.6,30.03,SW,225,0.0,-999.0,70,-99.99,,,0.00,Acu-Link.com,2013-01-25 03:10:00,
2013-01-24 21:25:00,60.4,50.6,30.03,SW,225,0.0,-999.0,70,-99.99,,,0.00,Acu-Link.com,2013-01-25 03:25:00,
2013-01-24 21:40:00,60.4,50.6,30.03,SW,225,0.0,-999.0,70,-99.99,,,0.00,Acu-Link.com,2013-01-25 03:40:00,
2013-01-24 21:55:00,60.4,50.6,30.03,SW,225,0.0,-999.0,70,-99.99,,,0.00,Acu-Link.com,2013-01-25 03:55:00,
2013-01-24 22:10:00,60.4,50.6,30.03,SW,225,0.0,-999.0,70,-99.99,,,0.00,Acu-Link.com,2013-01-25 04:10:00,
2013-01-24 22:26:00,60.4,50.6,30.03,SW,225,0.0,-999.0,70,-99.99,,,0.00,Acu-Link.com,2013-01-25 04:26:00,
2013-01-24 22:41:00,60.4,50.6,30.03,SW,225,0.0,-999.0,70,-99.99,,,0.00,Acu-Link.com,2013-01-25 04:41:00,
2013-01-24 23:07:00,55.6,49.8,30.01,North,0,0.0,-999.0,81,-99.99,,,0.00,Acu-Link.com,2013-01-25 05:07:00,
2013-01-24 23:23:00,54.3,50.2,30.01,SW,225,0.0,-999.0,86,-99.99,,,0.00,Acu-Link.com,2013-01-25 05:23:00,
2013-01-24 23:38:00,54.5,50.7,30.01,WNW,292,0.0,-999.0,87,-99.99,,,0.00,Acu-Link.com,2013-01-25 05:38:00,
2013-01-24 23:53:00,54.7,49.9,30.03,WNW,292,3.1,-999.0,84,-99.99,,,0.00,Acu-Link.com,2013-01-25 05:53:00,